createdAt,value
2017-05-08T00:01:14.309Z,12.98
2017-05-08T00:03:43.276Z,11.62
2017-05-08T00:06:11.584Z,11.30
2017-05-08T00:08:39.825Z,10.98
2017-05-08T00:11:08.230Z,10.76
2017-05-08T00:13:37.259Z,9.95
2017-05-08T00:16:05.480Z,8.57
2017-05-08T00:18:33.710Z,9.62
2017-05-08T00:21:02.188Z,10.10
2017-05-08T00:23:30.420Z,11.57
2017-05-08T00:25:59.387Z,11.65
2017-05-08T00:28:27.638Z,11.93
2017-05-08T00:30:55.987Z,11.97
2017-05-08T00:33:24.226Z,11.32
2017-05-08T00:35:52.565Z,10.86
2017-05-08T00:38:20.890Z,10.75
2017-05-08T00:40:49.899Z,9.22
2017-05-08T00:43:18.161Z,10.48
2017-05-08T00:45:47.152Z,9.40
2017-05-08T00:48:16.148Z,10.05
2017-05-08T00:50:45.187Z,9.38
2017-05-08T00:53:13.473Z,9.42
2017-05-08T00:55:41.789Z,8.97
2017-05-08T00:58:10.876Z,9.46
2017-05-08T01:00:39.851Z,9.20
2017-05-08T01:03:08.160Z,9.20
2017-05-08T01:05:36.421Z,9.98
2017-05-08T01:08:05.384Z,9.62
2017-05-08T01:10:33.684Z,9.46
2017-05-08T01:13:02.672Z,9.63
2017-05-08T01:15:30.927Z,9.37
2017-05-08T01:17:59.237Z,9.52
2017-05-08T01:20:28.232Z,7.93
2017-05-08T01:22:57.197Z,8.38
2017-05-08T01:25:25.507Z,9.03
2017-05-08T01:27:53.763Z,7.92
2017-05-08T01:30:22.765Z,8.67
2017-05-08T01:32:51.743Z,7.98
2017-05-08T01:35:19.984Z,7.70
2017-05-08T01:37:48.214Z,7.07
2017-05-08T01:40:16.448Z,6.53
2017-05-08T01:42:44.702Z,8.05
2017-05-08T01:45:12.929Z,6.60
2017-05-08T01:47:41.944Z,7.98
2017-05-08T01:50:10.195Z,7.90
2017-05-08T01:52:39.211Z,7.20
2017-05-08T01:55:07.469Z,7.13
2017-05-08T01:57:36.480Z,7.94
2017-05-08T02:00:04.712Z,8.97
2017-05-08T02:02:32.944Z,7.60
2017-05-08T02:05:01.289Z,8.98
2017-05-08T02:07:30.264Z,9.20
2017-05-08T02:09:59.233Z,7.80
2017-05-08T02:12:27.492Z,8.48
2017-05-08T02:14:55.715Z,9.63
2017-05-08T02:17:24.705Z,9.34
2017-05-08T02:19:53.708Z,8.95
2017-05-08T02:22:21.983Z,8.92
2017-05-08T02:24:50.260Z,9.18
2017-05-08T02:27:18.644Z,9.13
2017-05-08T02:29:46.911Z,8.90
2017-05-08T02:32:15.141Z,9.08
2017-05-08T02:34:43.464Z,7.85
2017-05-08T02:37:11.750Z,8.80
2017-05-08T02:39:39.968Z,8.58
2017-05-08T02:42:08.284Z,9.17
2017-05-08T02:44:37.249Z,8.52
2017-05-08T02:47:05.476Z,8.62
2017-05-08T02:49:33.734Z,8.32
2017-05-08T02:52:01.969Z,7.95
2017-05-08T02:54:30.280Z,8.78
2017-05-08T02:56:58.523Z,8.80
2017-05-08T02:59:26.752Z,8.80
2017-05-08T03:01:54.996Z,8.70
2017-05-08T03:04:24.100Z,7.93
2017-05-08T03:06:52.337Z,9.33
2017-05-08T03:09:20.560Z,8.88
2017-05-08T03:11:48.815Z,8.93
2017-05-08T03:14:17.782Z,9.22
2017-05-08T03:16:46.091Z,10.05
2017-05-08T03:19:14.337Z,8.67
2017-05-08T03:21:42.678Z,8.23
2017-05-08T03:24:10.913Z,8.40
2017-05-08T03:26:39.904Z,7.57
2017-05-08T03:29:08.861Z,7.15
2017-05-08T03:31:37.177Z,7.58
2017-05-08T03:34:05.423Z,7.40
2017-05-08T03:36:33.743Z,7.80
2017-05-08T03:39:01.973Z,6.60
2017-05-08T03:41:30.270Z,6.37
2017-05-08T03:43:59.240Z,6.42
2017-05-08T03:46:27.475Z,6.52
2017-05-08T03:48:55.829Z,6.68
2017-05-08T03:51:24.089Z,6.85
2017-05-08T03:53:52.319Z,6.83
2017-05-08T03:56:20.578Z,7.22
2017-05-08T03:58:48.809Z,6.80
2017-05-08T04:01:17.782Z,6.72
2017-05-08T04:03:46.041Z,7.57
2017-05-08T04:06:14.398Z,7.15
2017-05-08T04:08:42.633Z,7.50
2017-05-08T04:11:11.023Z,8.00
2017-05-08T04:13:39.251Z,8.72
2017-05-08T04:16:07.497Z,8.00
2017-05-08T04:18:35.780Z,9.53
2017-05-08T04:21:04.118Z,9.33
2017-05-08T04:23:32.355Z,9.07
2017-05-08T04:26:00.637Z,9.00
2017-05-08T04:28:28.863Z,9.30
2017-05-08T04:30:57.092Z,9.45
2017-05-08T04:33:25.355Z,8.10
2017-05-08T04:35:53.660Z,8.87
2017-05-08T04:38:22.665Z,7.98
2017-05-08T04:40:50.912Z,8.08
2017-05-08T04:43:19.916Z,8.65
2017-05-08T04:45:48.959Z,8.23
2017-05-08T04:48:17.306Z,7.87
2017-05-08T04:50:45.537Z,8.32
2017-05-08T04:53:13.772Z,8.30
2017-05-08T04:55:42.122Z,7.82
2017-05-08T04:58:11.250Z,8.87
2017-05-08T05:00:39.572Z,8.02
2017-05-08T05:03:08.583Z,8.05
2017-05-08T05:05:36.854Z,9.10
2017-05-08T05:08:05.859Z,8.55
2017-05-08T05:10:34.134Z,8.40
2017-05-08T05:13:02.393Z,8.20
2017-05-08T05:15:30.676Z,8.03
2017-05-08T05:17:59.177Z,8.83
2017-05-08T05:20:27.449Z,7.60
2017-05-08T05:22:55.752Z,7.80
2017-05-08T05:25:24.025Z,8.16
2017-05-08T05:27:52.253Z,7.47
2017-05-08T05:30:21.216Z,8.03
2017-05-08T05:32:49.476Z,8.60
2017-05-08T05:35:17.724Z,7.93
2017-05-08T05:37:46.052Z,7.50
2017-05-08T05:40:14.300Z,7.90
2017-05-08T05:42:42.565Z,7.83
2017-05-08T05:45:10.798Z,8.20
2017-05-08T05:47:40.001Z,8.20
2017-05-08T05:50:08.272Z,8.30
2017-05-08T05:52:36.552Z,8.00
2017-05-08T05:55:04.859Z,8.97
2017-05-08T05:57:33.088Z,8.32
2017-05-08T06:00:02.060Z,8.18
2017-05-08T06:02:30.320Z,8.60
2017-05-08T06:04:58.575Z,9.22
2017-05-08T06:07:26.803Z,9.92
2017-05-08T06:09:55.076Z,11.57
2017-05-08T06:12:23.427Z,12.25
2017-05-08T06:14:51.679Z,12.70
2017-05-08T06:17:20.160Z,15.28
2017-05-08T06:19:48.560Z,15.30
2017-05-08T06:22:16.795Z,15.35
2017-05-08T06:24:45.816Z,15.37
2017-05-08T06:27:14.084Z,16.27
2017-05-08T06:29:41.651Z,15.38
2017-05-08T06:32:09.913Z,16.67
2017-05-08T06:34:38.217Z,15.97
2017-05-08T06:37:06.447Z,13.56
2017-05-08T06:39:35.457Z,12.90
2017-05-08T06:42:04.453Z,12.87
2017-05-08T06:44:32.701Z,12.23
2017-05-08T06:47:00.996Z,11.67
2017-05-08T06:49:29.284Z,12.15
2017-05-08T06:51:57.560Z,12.70
2017-05-08T06:54:25.866Z,13.83
2017-05-08T06:56:54.243Z,13.55
2017-05-08T06:59:22.511Z,11.60
2017-05-08T07:01:50.769Z,11.86
2017-05-08T07:04:19.136Z,11.10
2017-05-08T07:06:47.409Z,12.33
2017-05-08T07:09:15.730Z,11.27
2017-05-08T07:11:44.088Z,10.33
2017-05-08T07:14:13.087Z,10.56
2017-05-08T07:16:41.363Z,10.40
2017-05-08T07:19:09.617Z,10.08
2017-05-08T07:21:37.954Z,10.45
2017-05-08T07:24:06.248Z,9.27
2017-05-08T07:26:34.607Z,10.08
2017-05-08T07:29:02.948Z,10.50
2017-05-08T07:31:31.216Z,10.95
2017-05-08T07:33:59.536Z,11.70
2017-05-08T07:36:27.868Z,10.37
2017-05-08T07:38:56.860Z,9.50
2017-05-08T07:41:25.847Z,10.28
2017-05-08T07:43:54.853Z,9.55
2017-05-08T07:46:23.119Z,10.20
2017-05-08T07:48:52.155Z,8.65
2017-05-08T07:51:20.390Z,6.98
2017-05-08T07:53:48.711Z,6.28
2017-05-08T07:56:16.933Z,5.85
2017-05-08T07:58:45.925Z,5.73
2017-05-08T08:01:14.950Z,5.63
2017-05-08T08:03:43.164Z,5.38
2017-05-08T08:06:11.464Z,4.28
2017-05-08T08:08:40.476Z,3.77
2017-05-08T08:11:08.706Z,4.18
2017-05-08T08:13:36.924Z,5.22
2017-05-08T08:16:05.212Z,4.65
2017-05-08T08:18:33.511Z,4.36
2017-05-08T08:21:01.733Z,4.25
2017-05-08T08:23:30.717Z,3.63
2017-05-08T08:25:59.716Z,3.40
2017-05-08T08:28:27.968Z,3.30
2017-05-08T08:30:56.286Z,3.38
2017-05-08T08:33:25.003Z,2.67
2017-05-08T08:35:53.336Z,2.82
2017-05-08T08:38:22.340Z,2.80
2017-05-08T08:40:50.654Z,2.80
2017-05-08T08:43:18.929Z,2.75
2017-05-08T08:45:47.264Z,2.65
2017-05-08T08:48:15.557Z,2.85
2017-05-08T08:50:43.778Z,3.48
2017-05-08T08:53:12.116Z,2.80
2017-05-08T08:55:40.344Z,2.83
2017-05-08T08:58:09.309Z,3.17
2017-05-08T09:00:37.593Z,3.23
2017-05-08T09:03:05.834Z,3.25
2017-05-08T09:05:34.119Z,3.00
2017-05-08T09:08:02.367Z,2.52
2017-05-08T09:10:30.661Z,2.78
2017-05-08T09:12:58.917Z,3.00
2017-05-08T09:15:27.330Z,2.53
2017-05-08T09:17:55.556Z,2.70
2017-05-08T09:20:23.828Z,2.67
2017-05-08T09:22:52.800Z,2.52
2017-05-08T09:25:21.782Z,2.70
2017-05-08T09:27:50.136Z,2.52
2017-05-08T09:30:18.512Z,2.60
2017-05-08T09:32:46.851Z,2.60
2017-05-08T09:35:15.117Z,3.83
2017-05-08T09:37:44.102Z,2.80
2017-05-08T09:40:13.086Z,2.90
2017-05-08T09:42:41.425Z,2.40
2017-05-08T09:45:09.768Z,2.52
2017-05-08T09:47:38.011Z,2.18
2017-05-08T09:50:06.258Z,2.10
2017-05-08T09:52:34.528Z,2.28
2017-05-08T09:55:02.801Z,2.40
2017-05-08T09:57:31.030Z,2.10
2017-05-08T10:00:00.171Z,2.00
2017-05-08T10:02:28.616Z,1.90
2017-05-08T10:04:56.890Z,1.72
2017-05-08T10:07:25.125Z,2.10
2017-05-08T10:09:53.376Z,2.08
2017-05-08T10:12:21.624Z,1.68
2017-05-08T10:14:49.926Z,1.70
2017-05-08T10:17:18.200Z,2.03
2017-05-08T10:19:46.541Z,1.70
2017-05-08T10:22:14.909Z,2.13
2017-05-08T10:24:44.012Z,2.58
2017-05-08T10:27:12.257Z,2.40
2017-05-08T10:29:40.490Z,2.05
2017-05-08T10:32:08.724Z,2.15
2017-05-08T10:34:37.705Z,1.98
2017-05-08T10:37:06.034Z,2.12
2017-05-08T10:39:34.264Z,2.03
2017-05-08T10:42:02.701Z,2.03
2017-05-08T10:44:31.073Z,2.00
2017-05-08T10:46:59.302Z,1.85
2017-05-08T10:49:28.321Z,2.27
2017-05-08T10:51:56.569Z,1.90
2017-05-08T10:54:25.714Z,1.60
2017-05-08T10:56:53.969Z,1.58
2017-05-08T10:59:22.244Z,1.80
2017-05-08T11:01:50.537Z,2.00
2017-05-08T11:04:18.787Z,2.10
2017-05-08T11:06:47.076Z,1.98
2017-05-08T11:09:15.466Z,2.40
2017-05-08T11:11:45.573Z,2.33
2017-05-08T11:14:13.867Z,1.80
2017-05-08T11:16:42.129Z,1.83
2017-05-08T11:19:10.436Z,1.93
2017-05-08T11:21:38.672Z,2.00
2017-05-08T11:24:06.927Z,2.00
2017-05-08T11:26:35.173Z,2.02
2017-05-08T11:29:03.593Z,1.77
2017-05-08T11:31:31.892Z,1.93
2017-05-08T11:34:00.108Z,2.30
2017-05-08T11:36:29.143Z,2.20
2017-05-08T11:38:58.299Z,2.42
2017-05-08T11:41:26.594Z,2.12
2017-05-08T11:43:54.859Z,2.16
2017-05-08T11:46:23.820Z,2.10
2017-05-08T11:48:52.055Z,2.20
2017-05-08T11:51:20.344Z,2.50
2017-05-08T11:53:48.604Z,2.40
2017-05-08T11:56:16.866Z,2.40
2017-05-08T11:58:45.086Z,2.17
2017-05-08T12:01:13.323Z,2.10
2017-05-08T12:03:41.551Z,2.32
2017-05-08T12:06:09.854Z,2.50
2017-05-08T12:08:38.173Z,2.70
2017-05-08T12:11:06.411Z,2.56
2017-05-08T12:13:34.823Z,2.28
2017-05-08T12:16:03.169Z,2.30
2017-05-08T12:18:31.502Z,2.45
2017-05-08T12:20:59.916Z,2.30
2017-05-08T12:23:28.196Z,2.80
2017-05-08T12:25:56.428Z,2.60
2017-05-08T12:28:24.748Z,2.70
2017-05-08T12:30:53.004Z,2.30
2017-05-08T12:33:21.995Z,2.37
2017-05-08T12:35:50.333Z,2.48
2017-05-08T12:38:18.564Z,2.50
2017-05-08T12:40:46.860Z,2.48
2017-05-08T12:43:15.120Z,2.43
2017-05-08T12:45:43.412Z,2.98
2017-05-08T12:48:11.664Z,2.10
2017-05-08T12:50:39.940Z,2.50
2017-05-08T12:53:08.229Z,2.48
2017-05-08T12:55:36.474Z,1.92
2017-05-08T12:58:05.519Z,2.23
2017-05-08T13:00:33.905Z,2.07
2017-05-08T13:03:02.173Z,2.22
2017-05-08T13:05:30.402Z,2.02
2017-05-08T13:07:59.492Z,2.02
2017-05-08T13:10:28.508Z,2.25
2017-05-08T13:12:56.763Z,2.42
2017-05-08T13:15:25.009Z,2.32
2017-05-08T13:17:53.228Z,2.23
2017-05-08T13:20:21.509Z,2.48
2017-05-08T13:22:49.763Z,2.30
2017-05-08T13:25:18.762Z,2.27
2017-05-08T13:27:47.036Z,2.06
2017-05-08T13:30:15.354Z,2.22
2017-05-08T13:32:43.732Z,2.33
2017-05-08T13:35:12.070Z,2.64
2017-05-08T13:37:40.303Z,2.35
2017-05-08T13:40:08.538Z,2.40
2017-05-08T13:42:36.820Z,2.28
2017-05-08T13:45:05.068Z,2.37
2017-05-08T13:47:33.301Z,2.17
2017-05-08T13:50:01.611Z,2.43
2017-05-08T13:52:30.752Z,2.20
2017-05-08T13:54:59.072Z,2.10
2017-05-08T13:57:27.352Z,2.20
2017-05-08T13:59:56.323Z,2.20
2017-05-08T14:02:24.634Z,2.28
2017-05-08T14:04:53.663Z,2.30
2017-05-08T14:07:21.931Z,1.90
2017-05-08T14:09:50.172Z,2.30
2017-05-08T14:12:18.476Z,1.90
2017-05-08T14:14:46.789Z,2.20
2017-05-08T14:17:16.193Z,1.95
2017-05-08T14:19:44.476Z,2.08
2017-05-08T14:22:12.714Z,2.30
2017-05-08T14:24:41.095Z,1.80
2017-05-08T14:27:09.441Z,2.36
2017-05-08T14:29:37.668Z,1.80
2017-05-08T14:32:05.998Z,1.98
2017-05-08T14:34:34.250Z,1.70
2017-05-08T14:37:02.504Z,1.60
2017-05-08T14:39:30.814Z,1.52
2017-05-08T14:41:59.081Z,5.10
2017-05-08T14:44:28.062Z,3.87
2017-05-08T14:46:57.033Z,2.10
2017-05-08T14:49:25.384Z,1.80
2017-05-08T14:51:53.630Z,1.96
2017-05-08T14:54:21.872Z,2.40
2017-05-08T14:56:50.851Z,2.08
2017-05-08T14:59:19.217Z,2.08
2017-05-08T15:01:47.538Z,2.20
2017-05-08T15:04:16.532Z,4.88
2017-05-08T15:06:44.828Z,3.42
2017-05-08T15:09:13.064Z,2.10
2017-05-08T15:11:42.121Z,1.80
2017-05-08T15:14:10.365Z,1.97
2017-05-08T15:16:38.596Z,1.73
2017-05-08T15:19:07.000Z,1.92
2017-05-08T15:21:35.997Z,1.90
2017-05-08T15:24:04.371Z,2.20
2017-05-08T15:26:32.652Z,2.35
2017-05-08T15:29:01.067Z,2.00
2017-05-08T15:31:29.444Z,1.82
2017-05-08T15:33:57.688Z,2.00
2017-05-08T15:36:25.952Z,1.90
2017-05-08T15:38:54.231Z,2.00
2017-05-08T15:41:22.508Z,1.73
2017-05-08T15:43:50.801Z,2.26
2017-05-08T15:46:19.070Z,1.70
2017-05-08T15:48:47.337Z,1.80
2017-05-08T15:51:15.618Z,1.75
2017-05-08T15:53:43.848Z,1.70
2017-05-08T15:56:12.097Z,1.78
2017-05-08T15:58:40.343Z,1.77
2017-05-08T16:01:08.586Z,1.80
2017-05-08T16:03:36.891Z,1.80
2017-05-08T16:06:05.154Z,1.70
2017-05-08T16:08:34.132Z,1.80
2017-05-08T16:11:03.259Z,1.70
2017-05-08T16:13:31.529Z,1.80
2017-05-08T16:15:59.809Z,1.83
2017-05-08T16:18:28.147Z,1.98
2017-05-08T16:20:57.132Z,2.13
2017-05-08T16:23:25.866Z,1.98
2017-05-08T16:25:54.220Z,1.70
2017-05-08T16:28:23.428Z,1.72
2017-05-08T16:30:51.672Z,1.86
2017-05-08T16:33:20.003Z,1.63
2017-05-08T16:35:48.240Z,1.73
2017-05-08T16:38:17.269Z,1.70
2017-05-08T16:40:45.509Z,1.70
2017-05-08T16:43:14.499Z,1.77
2017-05-08T16:45:43.512Z,1.90
2017-05-08T16:48:11.767Z,2.20
2017-05-08T16:50:40.775Z,1.75
2017-05-08T16:53:09.014Z,1.70
2017-05-08T16:55:37.259Z,1.70
2017-05-08T16:58:05.516Z,1.90
2017-05-08T17:00:33.744Z,1.58
2017-05-08T17:03:01.994Z,2.00
2017-05-08T17:05:30.565Z,1.70
2017-05-08T17:07:58.803Z,1.70
2017-05-08T17:10:27.156Z,1.40
2017-05-08T17:12:56.163Z,1.52
2017-05-08T17:15:25.200Z,1.90
2017-05-08T17:17:53.563Z,1.62
2017-05-08T17:20:21.788Z,1.90
2017-05-08T17:22:50.100Z,1.32
2017-05-08T17:25:18.337Z,1.50
2017-05-08T17:27:46.678Z,1.70
2017-05-08T17:30:15.025Z,1.93
2017-05-08T17:32:43.255Z,1.47
2017-05-08T17:35:11.725Z,1.53
2017-05-08T17:37:40.180Z,1.63
2017-05-08T17:40:08.408Z,1.60
2017-05-08T17:42:36.713Z,1.90
2017-05-08T17:45:04.982Z,2.00
2017-05-08T17:47:33.260Z,1.62
2017-05-08T17:50:01.566Z,1.98
2017-05-08T17:52:29.836Z,1.55
2017-05-08T17:54:58.091Z,1.55
2017-05-08T17:57:26.321Z,1.76
2017-05-08T17:59:54.581Z,1.48
2017-05-08T18:02:22.860Z,2.25
2017-05-08T18:04:51.131Z,1.53
2017-05-08T18:07:19.453Z,1.70
2017-05-08T18:09:47.684Z,1.50
2017-05-08T18:12:16.041Z,1.52
2017-05-08T18:14:44.300Z,1.58
2017-05-08T18:17:12.576Z,1.70
2017-05-08T18:19:40.832Z,1.60
2017-05-08T18:22:09.057Z,1.48
2017-05-08T18:24:37.485Z,2.00
2017-05-08T18:27:05.769Z,1.60
2017-05-08T18:29:34.016Z,1.70
2017-05-08T18:32:02.313Z,1.63
2017-05-08T18:34:30.597Z,1.20
2017-05-08T18:36:58.839Z,1.30
2017-05-08T18:39:27.820Z,1.97
2017-05-08T18:41:56.240Z,1.57
2017-05-08T18:44:24.607Z,1.53
2017-05-08T18:46:53.585Z,2.22
2017-05-08T18:49:22.581Z,1.40
2017-05-08T18:51:51.577Z,1.40
2017-05-08T18:54:20.552Z,1.60
2017-05-08T18:56:48.894Z,1.42
2017-05-08T18:59:17.333Z,1.90
2017-05-08T19:01:45.587Z,1.75
2017-05-08T19:04:14.620Z,1.82
2017-05-08T19:06:42.917Z,1.73
2017-05-08T19:09:11.143Z,1.72
2017-05-08T19:11:39.392Z,1.82
2017-05-08T19:14:07.640Z,1.80
2017-05-08T19:16:35.889Z,2.20
2017-05-08T19:19:04.150Z,1.50
2017-05-08T19:21:33.131Z,1.68
2017-05-08T19:24:02.092Z,1.60
2017-05-08T19:26:30.348Z,1.62
2017-05-08T19:28:58.597Z,1.57
2017-05-08T19:31:27.018Z,1.60
2017-05-08T19:33:55.347Z,1.28
2017-05-08T19:36:23.575Z,1.68
2017-05-08T19:38:51.862Z,2.10
2017-05-08T19:41:20.883Z,2.30
2017-05-08T19:43:49.868Z,2.07
2017-05-08T19:46:18.838Z,1.90
2017-05-08T19:48:47.079Z,1.74
2017-05-08T19:51:15.428Z,1.83
2017-05-08T19:53:43.708Z,2.17
2017-05-08T19:56:11.960Z,2.10
2017-05-08T19:58:40.189Z,2.30
2017-05-08T20:01:08.428Z,1.60
2017-05-08T20:03:36.684Z,1.67
2017-05-08T20:06:05.676Z,1.95
2017-05-08T20:08:33.944Z,2.17
2017-05-08T20:11:02.910Z,2.13
2017-05-08T20:13:31.174Z,2.10
2017-05-08T20:15:59.413Z,2.78
2017-05-08T20:18:27.668Z,2.45
2017-05-08T20:20:55.911Z,3.20
2017-05-08T20:23:24.177Z,2.05
2017-05-08T20:25:52.418Z,3.00
2017-05-08T20:28:20.652Z,2.30
2017-05-08T20:30:49.621Z,2.68
2017-05-08T20:33:17.886Z,2.43
2017-05-08T20:35:46.249Z,2.40
2017-05-08T20:38:14.492Z,2.30
2017-05-08T20:40:42.716Z,2.17
2017-05-08T20:43:10.959Z,2.00
2017-05-08T20:45:39.205Z,2.30
2017-05-08T20:48:08.215Z,1.84
2017-05-08T20:50:36.496Z,2.02
2017-05-08T20:53:04.760Z,2.40
2017-05-08T20:55:33.037Z,2.30
2017-05-08T20:58:01.294Z,1.95
2017-05-08T21:00:29.533Z,1.85
2017-05-08T21:02:57.892Z,1.70
2017-05-08T21:05:26.130Z,2.20
2017-05-08T21:07:55.146Z,1.90
2017-05-08T21:10:23.438Z,2.22
2017-05-08T21:12:51.713Z,2.25
2017-05-08T21:15:19.971Z,2.30
2017-05-08T21:17:48.205Z,2.03
2017-05-08T21:20:16.449Z,1.50
2017-05-08T21:22:44.738Z,1.90
2017-05-08T21:25:12.986Z,2.20
2017-05-08T21:27:41.223Z,1.93
2017-05-08T21:30:10.239Z,2.20
2017-05-08T21:32:38.497Z,2.20
2017-05-08T21:35:06.876Z,2.25
2017-05-08T21:37:35.096Z,1.90
2017-05-08T21:40:03.343Z,2.33
2017-05-08T21:42:31.575Z,1.90
2017-05-08T21:44:59.816Z,2.40
2017-05-08T21:47:28.064Z,2.10
2017-05-08T21:49:56.316Z,1.90
2017-05-08T21:52:24.540Z,2.00
2017-05-08T21:54:52.785Z,2.74
2017-05-08T21:57:21.265Z,2.33
2017-05-08T21:59:49.493Z,2.27
2017-05-08T22:02:17.741Z,2.25
2017-05-08T22:04:46.006Z,3.00
2017-05-08T22:07:14.237Z,3.08
2017-05-08T22:09:42.496Z,1.83
2017-05-08T22:12:10.781Z,2.75
2017-05-08T22:14:39.027Z,2.42
2017-05-08T22:17:07.274Z,2.33
2017-05-08T22:19:35.486Z,3.20
2017-05-08T22:22:04.468Z,2.50
2017-05-08T22:24:33.455Z,2.03
2017-05-08T22:27:01.766Z,2.55
2017-05-08T22:29:30.014Z,2.10
2017-05-08T22:31:58.992Z,2.42
2017-05-08T22:34:27.255Z,3.03
2017-05-08T22:36:55.577Z,3.27
2017-05-08T22:39:23.839Z,3.73
2017-05-08T22:41:52.119Z,3.20
2017-05-08T22:44:20.437Z,3.37
2017-05-08T22:46:48.664Z,3.02
2017-05-08T22:49:17.651Z,3.18
2017-05-08T22:51:46.657Z,3.12
2017-05-08T22:54:15.632Z,3.18
2017-05-08T22:56:44.653Z,3.33
2017-05-08T22:59:12.893Z,3.35
2017-05-08T23:01:41.873Z,3.10
2017-05-08T23:04:10.110Z,2.97
2017-05-08T23:06:38.336Z,3.07
2017-05-08T23:09:06.558Z,2.47
2017-05-08T23:11:34.792Z,3.25
2017-05-08T23:14:03.024Z,2.98
2017-05-08T23:16:31.281Z,2.83
2017-05-08T23:18:59.544Z,3.20
2017-05-08T23:21:27.773Z,2.80
2017-05-08T23:23:56.085Z,2.57
2017-05-08T23:26:24.332Z,3.50
2017-05-08T23:28:52.578Z,3.47
2017-05-08T23:31:20.809Z,2.98
2017-05-08T23:33:49.057Z,3.23
2017-05-08T23:36:18.061Z,2.75
2017-05-08T23:38:47.109Z,3.12
2017-05-08T23:41:15.436Z,3.00
2017-05-08T23:43:44.397Z,2.72
2017-05-08T23:46:12.660Z,3.02
2017-05-08T23:48:40.897Z,2.73
2017-05-08T23:51:09.124Z,2.88
2017-05-08T23:53:37.384Z,2.90
2017-05-08T23:56:05.651Z,2.70
2017-05-08T23:58:33.896Z,2.55
